Time;durP1;ratioP1;P1;durP2;ratioP2;P2;SDS_P1;SDS_P2;PMS_P1;PMS_P2;Temp;Humidity;BMP_temperature;BMP_pressure;BME280_temperature;BME280_humidity;BME280_pressure;Samples;Min_cycle;Max_cycle;Signal;HPM_P1;HPM_P2
2021/10/20 00:02:22;;;;;;;5.00;3.93;;;;;;;15.60;51.70;96906.19;5067411;28;20455;-66
2021/10/20 00:04:48;;;;;;;5.80;3.67;;;;;;;15.62;51.73;96906.00;5074448;28;20182;-70
2021/10/20 00:07:13;;;;;;;6.40;4.33;;;;;;;15.62;51.75;96903.38;5049958;28;20195;-67
2021/10/20 00:09:39;;;;;;;4.63;3.30;;;;;;;15.59;52.01;96901.91;5063513;28;20421;-68
2021/10/20 00:12:05;;;;;;;4.53;4.10;;;;;;;15.59;51.72;96901.09;5066606;28;20228;-67
2021/10/20 00:14:31;;;;;;;5.30;4.20;;;;;;;15.57;51.89;96900.47;5073092;28;20265;-66
2021/10/20 00:16:56;;;;;;;4.93;3.30;;;;;;;15.54;52.13;96892.94;5068270;28;20532;-68
2021/10/20 00:19:22;;;;;;;4.93;3.83;;;;;;;15.50;51.98;96890.66;5073374;28;20178;-67
2021/10/20 00:21:48;;;;;;;4.37;3.73;;;;;;;15.46;51.95;96892.06;5065376;28;20660;-67
2021/10/20 00:24:13;;;;;;;5.77;3.37;;;;;;;15.39;51.70;96885.91;5057496;28;20175;-68
2021/10/20 00:26:39;;;;;;;6.93;3.30;;;;;;;15.36;51.37;96887.13;5073815;28;20198;-67
2021/10/20 00:29:05;;;;;;;4.43;3.57;;;;;;;15.44;51.07;96883.53;5062915;28;20194;-65
2021/10/20 00:31:30;;;;;;;4.50;3.63;;;;;;;15.51;51.45;96883.56;5067492;28;20588;-68
2021/10/20 00:33:56;;;;;;;4.50;3.80;;;;;;;15.42;51.21;96879.44;5072782;28;20194;-68
2021/10/20 00:36:21;;;;;;;4.77;4.10;;;;;;;15.42;51.04;96880.25;5073925;28;20206;-67
2021/10/20 00:38:48;;;;;;;4.07;3.53;;;;;;;15.54;50.96;96885.00;5052492;28;20257;-68
2021/10/20 00:41:14;;;;;;;6.33;3.00;;;;;;;15.55;50.71;96871.63;5052741;28;20421;-68
2021/10/20 00:43:41;;;;;;;6.70;3.50;;;;;;;15.55;50.67;96866.34;5087021;28;20174;-66
2021/10/20 00:46:07;;;;;;;4.07;3.03;;;;;;;15.49;50.66;96865.28;5075173;28;20258;-69
2021/10/20 00:48:33;;;;;;;4.17;3.13;;;;;;;15.52;50.33;96861.44;5078270;28;20451;-69
2021/10/20 00:50:59;;;;;;;3.23;2.93;;;;;;;15.66;49.78;96862.34;5083061;28;20424;-66
2021/10/20 00:53:24;;;;;;;4.20;3.20;;;;;;;15.60;49.70;96856.00;5068330;28;20179;-67
2021/10/20 00:55:50;;;;;;;4.67;3.63;;;;;;;15.76;49.40;96857.53;5069842;28;20221;-67
2021/10/20 00:58:16;;;;;;;4.07;3.20;;;;;;;15.86;49.07;96854.56;5072737;28;20553;-67
2021/10/20 01:00:42;;;;;;;3.30;3.00;;;;;;;15.85;48.13;96849.50;5072766;28;20277;-67
2021/10/20 01:03:07;;;;;;;3.63;2.87;;;;;;;16.03;47.31;96847.13;5072461;28;20429;-67
2021/10/20 01:05:34;;;;;;;3.27;2.70;;;;;;;16.20;46.57;96836.25;5071841;28;20342;-68
2021/10/20 01:07:59;;;;;;;3.20;2.90;;;;;;;16.09;46.33;96838.44;5071333;28;20644;-68
2021/10/20 01:10:25;;;;;;;8.70;2.93;;;;;;;16.38;45.46;96835.69;5058257;28;20460;-66
2021/10/20 01:12:51;;;;;;;8.03;2.90;;;;;;;16.54;44.84;96834.53;5072113;28;20182;-66
2021/10/20 01:15:20;;;;;;;5.10;2.97;;;;;;;16.63;44.63;96828.06;5064274;28;20183;-67
2021/10/20 01:17:47;;;;;;;3.60;3.30;;;;;;;16.51;44.95;96830.44;5065190;28;20182;-66
2021/10/20 01:20:12;;;;;;;4.00;2.90;;;;;;;16.70;44.63;96820.94;5061218;28;21110;-67
2021/10/20 01:22:38;;;;;;;2.60;2.30;;;;;;;16.58;44.86;96819.88;5064777;28;20417;-66
2021/10/20 01:25:05;;;;;;;5.10;2.60;;;;;;;16.65;44.71;96810.13;5069725;28;20190;-68
2021/10/20 01:27:30;;;;;;;8.23;2.83;;;;;;;16.45;45.08;96817.22;5070675;28;20466;-68
2021/10/20 01:29:58;;;;;;;3.27;2.97;;;;;;;16.52;45.14;96810.09;5071669;28;20428;-66
2021/10/20 01:32:26;;;;;;;3.30;2.77;;;;;;;16.47;45.59;96801.97;5071655;28;20785;-69
2021/10/20 01:34:52;;;;;;;3.30;3.00;;;;;;;16.41;45.39;96796.44;5072049;28;20433;-67
2021/10/20 01:37:18;;;;;;;11.37;3.30;;;;;;;16.33;46.13;96791.34;5069919;28;20510;-68
2021/10/20 01:39:43;;;;;;;3.77;2.63;;;;;;;16.29;46.34;96795.38;5057406;28;20931;-66
2021/10/20 01:42:09;;;;;;;3.70;2.90;;;;;;;16.11;47.17;96788.84;5071026;28;20661;-67
2021/10/20 01:44:34;;;;;;;3.07;2.63;;;;;;;16.04;47.49;96790.63;5070336;28;20368;-68
2021/10/20 01:47:00;;;;;;;5.50;2.93;;;;;;;16.02;47.41;96786.56;5071286;28;20233;-67
2021/10/20 01:49:26;;;;;;;4.57;2.87;;;;;;;16.00;47.12;96770.06;5072042;28;20295;-67
2021/10/20 01:51:52;;;;;;;3.97;3.00;;;;;;;15.99;46.80;96771.91;5070347;28;20281;-69
2021/10/20 01:54:18;;;;;;;4.43;2.77;;;;;;;16.00;46.69;96770.06;5071992;28;20455;-66
2021/10/20 01:56:43;;;;;;;3.60;2.90;;;;;;;15.80;46.66;96753.09;5071344;28;20233;-68
2021/10/20 01:59:09;;;;;;;3.40;2.83;;;;;;;16.07;46.22;96761.16;5070542;28;20621;-68
2021/10/20 02:01:35;;;;;;;4.00;2.83;;;;;;;16.08;46.23;96754.88;5069914;28;20190;-68
2021/10/20 02:04:00;;;;;;;3.10;2.80;;;;;;;16.06;46.19;96743.69;5071685;28;20197;-66
2021/10/20 02:06:26;;;;;;;5.43;3.37;;;;;;;16.00;46.33;96747.13;5070125;28;20206;-68
2021/10/20 02:08:51;;;;;;;5.30;2.83;;;;;;;16.03;46.28;96751.19;5056026;28;20253;-67
2021/10/20 02:11:18;;;;;;;3.70;3.10;;;;;;;16.10;46.24;96744.09;5070323;28;20185;-67
2021/10/20 02:13:44;;;;;;;3.60;3.00;;;;;;;16.04;46.04;96735.13;5071303;28;20653;-68
2021/10/20 02:16:10;;;;;;;2.73;2.50;;;;;;;16.01;45.51;96740.78;5070663;28;20489;-65
2021/10/20 02:18:35;;;;;;;3.20;2.57;;;;;;;16.10;44.75;96722.94;5061100;28;20179;-67
2021/10/20 02:21:02;;;;;;;3.70;2.80;;;;;;;16.15;44.62;96724.97;5069626;28;20320;-67
2021/10/20 02:23:29;;;;;;;2.50;2.30;;;;;;;16.27;44.55;96718.09;5064308;28;20265;-69
2021/10/20 02:25:55;;;;;;;5.07;2.90;;;;;;;16.19;44.59;96715.66;5071102;28;20892;-67
2021/10/20 02:28:20;;;;;;;3.00;2.70;;;;;;;16.09;44.91;96708.94;5070456;28;20452;-67
2021/10/20 02:30:46;;;;;;;3.00;2.70;;;;;;;16.06;44.91;96711.97;5045523;28;20189;-66
2021/10/20 02:33:11;;;;;;;4.20;2.43;;;;;;;16.19;44.70;96703.22;5068295;28;20228;-67
2021/10/20 02:35:37;;;;;;;5.00;2.50;;;;;;;16.12;44.93;96711.19;5066800;28;20337;-67
2021/10/20 02:38:03;;;;;;;4.13;2.70;;;;;;;16.06;44.62;96698.75;5070671;28;20175;-68
2021/10/20 02:40:29;;;;;;;3.10;2.40;;;;;;;16.04;44.59;96708.69;5058265;28;20637;-68
2021/10/20 02:42:54;;;;;;;2.70;2.20;;;;;;;16.13;44.05;96710.13;5070676;28;20228;-66
2021/10/20 02:45:20;;;;;;;3.30;2.60;;;;;;;16.15;43.59;96698.56;5072144;28;20904;-67
2021/10/20 02:47:46;;;;;;;3.23;2.20;;;;;;;16.18;43.04;96703.44;5071891;28;20649;-67
2021/10/20 02:50:12;;;;;;;3.30;2.60;;;;;;;16.26;42.68;96697.97;5070538;28;20210;-66
2021/10/20 02:52:38;;;;;;;3.77;2.37;;;;;;;16.38;42.06;96698.19;5072140;28;20424;-68
2021/10/20 02:55:05;;;;;;;2.87;2.57;;;;;;;16.41;42.02;96701.25;5063342;28;20799;-69
2021/10/20 02:57:31;;;;;;;3.70;3.00;;;;;;;16.47;42.31;96696.16;5064703;28;20207;-67
2021/10/20 02:59:57;;;;;;;2.70;2.20;;;;;;;16.48;42.07;96695.16;5059000;28;20544;-66
2021/10/20 03:02:24;;;;;;;3.30;2.43;;;;;;;16.33;42.21;96693.50;5071737;28;20194;-66
2021/10/20 03:04:50;;;;;;;3.60;2.53;;;;;;;16.45;42.07;96692.91;5072155;28;20503;-66
2021/10/20 03:07:15;;;;;;;4.00;2.83;;;;;;;16.36;42.23;96690.47;5066013;28;20653;-67
2021/10/20 03:09:41;;;;;;;3.93;2.57;;;;;;;16.39;41.98;96687.41;5053223;28;20797;-66
2021/10/20 03:12:07;;;;;;;3.50;2.57;;;;;;;16.50;42.31;96674.63;5070905;28;20178;-66
2021/10/20 03:14:32;;;;;;;2.90;2.60;;;;;;;16.42;42.48;96672.97;5070871;28;20239;-68
2021/10/20 03:16:58;;;;;;;3.33;2.33;;;;;;;16.32;42.67;96670.72;5063666;28;20645;-67
2021/10/20 03:19:23;;;;;;;3.40;2.50;;;;;;;16.48;42.62;96664.22;5062806;28;20190;-68
2021/10/20 03:21:49;;;;;;;3.17;2.60;;;;;;;16.37;43.13;96675.41;5072403;28;20656;-67
2021/10/20 03:24:14;;;;;;;3.73;2.87;;;;;;;16.48;43.11;96666.88;5068859;28;20262;-68
2021/10/20 03:26:40;;;;;;;3.50;3.03;;;;;;;16.51;43.33;96665.63;5065570;28;20637;-67
2021/10/20 03:29:06;;;;;;;3.30;3.00;;;;;;;16.28;44.48;96659.75;5066091;28;20190;-67
2021/10/20 03:31:32;;;;;;;7.47;3.03;;;;;;;16.47;44.33;96653.84;5074556;28;20579;-67
2021/10/20 03:33:58;;;;;;;4.73;3.20;;;;;;;16.43;44.22;96662.19;5071384;28;20420;-67
2021/10/20 03:36:23;;;;;;;3.13;2.80;;;;;;;16.35;44.76;96651.81;5074423;28;20222;-67
2021/10/20 03:38:49;;;;;;;3.23;2.93;;;;;;;16.23;44.97;96653.44;5059733;28;20211;-66
2021/10/20 03:41:14;;;;;;;4.23;2.93;;;;;;;16.37;44.73;96633.94;5076061;28;20265;-67
2021/10/20 03:43:40;;;;;;;4.40;2.73;;;;;;;16.31;44.95;96641.84;5060864;28;20229;-66
2021/10/20 03:46:06;;;;;;;5.43;3.00;;;;;;;16.22;45.27;96635.94;5056670;28;20650;-67
2021/10/20 03:48:32;;;;;;;3.80;2.90;;;;;;;16.25;45.40;96646.13;5060374;28;20225;-67
2021/10/20 03:50:58;;;;;;;5.00;3.40;;;;;;;16.04;45.55;96631.25;5073139;28;20422;-67
2021/10/20 03:53:23;;;;;;;6.70;3.00;;;;;;;16.16;45.34;96623.53;5052859;28;20586;-67
2021/10/20 03:55:49;;;;;;;3.20;2.57;;;;;;;16.17;45.04;96633.09;5061861;28;20297;-67
2021/10/20 03:58:15;;;;;;;3.57;2.80;;;;;;;16.30;44.85;96622.53;5065494;28;20190;-67
2021/10/20 04:00:40;;;;;;;3.27;2.97;;;;;;;16.18;45.33;96621.50;5067292;28;20190;-67
2021/10/20 04:03:06;;;;;;;4.40;3.20;;;;;;;16.15;45.37;96640.41;5053990;28;20281;-67
2021/10/20 04:05:31;;;;;;;5.73;2.90;;;;;;;16.00;45.54;96630.84;5061830;28;20195;-68
2021/10/20 04:07:57;;;;;;;3.40;3.10;;;;;;;16.12;45.38;96631.88;5061534;28;20213;-67
2021/10/20 04:10:25;;;;;;;4.23;3.13;;;;;;;16.04;45.77;96620.69;5053211;28;20180;-66
2021/10/20 04:12:51;;;;;;;4.07;2.93;;;;;;;16.00;45.45;96622.91;5060291;28;20182;-66
2021/10/20 04:15:18;;;;;;;5.83;3.23;;;;;;;16.00;45.17;96620.28;5052116;28;20994;-68
2021/10/20 04:17:44;;;;;;;2.70;2.47;;;;;;;16.16;44.75;96611.13;5053157;28;20422;-67
2021/10/20 04:20:12;;;;;;;2.80;2.43;;;;;;;16.03;44.40;96627.78;5061354;28;20491;-67
2021/10/20 04:22:39;;;;;;;3.43;2.80;;;;;;;16.16;43.63;96626.16;5067472;28;20269;-68
2021/10/20 04:25:05;;;;;;;6.03;2.80;;;;;;;16.28;42.77;96628.03;5052985;28;20431;-69
2021/10/20 04:27:32;;;;;;;3.60;2.80;;;;;;;16.41;42.43;96621.09;5056800;28;20551;-67
2021/10/20 04:29:59;;;;;;;4.10;2.57;;;;;;;16.40;42.13;96622.91;5052169;28;20429;-68
2021/10/20 04:32:27;;;;;;;2.97;2.67;;;;;;;16.60;41.88;96624.75;5046805;28;20454;-68
2021/10/20 04:34:53;;;;;;;3.47;2.70;;;;;;;16.46;42.06;96615.22;5050463;28;20433;-68
2021/10/20 04:37:24;;;;;;;5.63;3.10;;;;;;;16.47;42.29;96617.63;5056709;28;20836;-66
2021/10/20 04:39:56;;;;;;;3.13;2.63;;;;;;;16.48;42.17;96613.97;5056246;28;20592;-67
2021/10/20 04:42:24;;;;;;;3.27;2.60;;;;;;;16.42;41.97;96618.25;5053039;28;20426;-67
2021/10/20 04:44:49;;;;;;;3.70;2.90;;;;;;;16.49;41.98;96618.25;5051543;28;20464;-68
2021/10/20 04:47:15;;;;;;;4.37;2.77;;;;;;;16.59;41.88;96615.19;5059727;28;20499;-67
2021/10/20 04:49:41;;;;;;;4.30;2.97;;;;;;;16.57;42.18;96612.75;5030640;28;20291;-67
2021/10/20 04:52:07;;;;;;;4.63;2.90;;;;;;;16.56;42.16;96612.97;5058877;28;20235;-67
2021/10/20 04:54:33;;;;;;;3.73;3.20;;;;;;;16.40;42.83;96615.00;5049636;28;20425;-67
2021/10/20 04:56:58;;;;;;;3.53;2.87;;;;;;;16.48;42.89;96606.03;5066947;28;20215;-67
2021/10/20 04:59:24;;;;;;;3.70;2.73;;;;;;;16.47;43.25;96607.06;5052494;28;20187;-67
2021/10/20 05:01:49;;;;;;;4.03;2.90;;;;;;;16.28;43.49;96593.66;5052502;28;20179;-67
2021/10/20 05:04:15;;;;;;;3.37;2.70;;;;;;;16.18;43.93;96600.34;5052325;28;20179;-67
2021/10/20 05:06:41;;;;;;;4.10;2.40;;;;;;;16.08;44.40;96593.63;5050065;28;20207;-67
2021/10/20 05:09:06;;;;;;;5.37;3.10;;;;;;;16.17;44.36;96586.34;5059269;28;20577;-69
2021/10/20 05:11:32;;;;;;;4.20;2.97;;;;;;;15.91;44.94;96587.94;5066950;28;20190;-66
2021/10/20 05:13:57;;;;;;;3.60;2.90;;;;;;;15.91;44.74;96582.66;5055814;28;20190;-66
2021/10/20 05:16:23;;;;;;;3.00;2.70;;;;;;;16.04;44.59;96575.75;5059588;28;20669;-67
2021/10/20 05:18:49;;;;;;;3.33;2.87;;;;;;;16.01;44.84;96569.03;5052056;28;20183;-69
2021/10/20 05:21:14;;;;;;;4.30;3.20;;;;;;;16.11;44.59;96566.81;5055112;28;20274;-68
2021/10/20 05:23:40;;;;;;;3.17;2.87;;;;;;;15.80;45.55;96562.88;5054977;28;20261;-67
2021/10/20 05:26:05;;;;;;;4.80;2.77;;;;;;;15.79;46.17;96578.94;5049629;28;20291;-68
2021/10/20 05:28:31;;;;;;;4.60;3.30;;;;;;;15.65;46.19;96575.44;5058232;28;20222;-66
2021/10/20 05:30:56;;;;;;;3.37;2.90;;;;;;;15.70;46.23;96577.47;5052283;28;20686;-65
2021/10/20 05:33:22;;;;;;;4.17;3.30;;;;;;;15.68;46.33;96579.53;5052450;28;20198;-66
2021/10/20 05:35:48;;;;;;;3.17;2.87;;;;;;;15.82;46.39;96576.72;5041418;28;20302;-66
2021/10/20 05:38:13;;;;;;;3.90;3.10;;;;;;;15.64;46.71;96577.28;5044532;28;20248;-67
2021/10/20 05:40:39;;;;;;;4.80;3.20;;;;;;;15.63;46.79;96572.19;5052593;28;20187;-66
2021/10/20 05:43:05;;;;;;;3.77;3.27;;;;;;;15.57;47.20;96575.63;5050914;28;20191;-67
2021/10/20 05:45:30;;;;;;;3.40;3.10;;;;;;;15.73;46.76;96570.00;5060050;28;20214;-68
2021/10/20 05:47:56;;;;;;;4.63;3.40;;;;;;;15.72;46.93;96576.28;5042970;28;20199;-68
2021/10/20 05:50:22;;;;;;;4.80;3.40;;;;;;;15.79;46.75;96569.19;5061105;28;20185;-67
2021/10/20 05:52:48;;;;;;;4.23;3.57;;;;;;;15.72;46.80;96578.94;5052912;28;20421;-67
2021/10/20 05:55:13;;;;;;;9.33;3.70;;;;;;;15.61;47.03;96571.59;5044759;28;20179;-67
2021/10/20 05:57:40;;;;;;;4.80;3.70;;;;;;;15.77;47.00;96580.97;5051834;28;20269;-68
2021/10/20 06:00:10;;;;;;;9.80;3.40;;;;;;;15.60;46.85;96570.75;5051449;28;20194;-69
2021/10/20 06:02:36;;;;;;;5.30;2.90;;;;;;;15.81;46.60;96569.00;5046493;28;20532;-67
2021/10/20 06:05:03;;;;;;;5.23;3.30;;;;;;;15.64;46.83;96571.19;5067518;28;20516;-67
2021/10/20 06:07:29;;;;;;;5.53;3.20;;;;;;;15.54;47.05;96565.47;5070261;28;20289;-66
2021/10/20 06:09:54;;;;;;;3.90;3.13;;;;;;;15.79;46.55;96557.81;5055637;28;20457;-67
2021/10/20 06:12:21;;;;;;;7.87;3.37;;;;;;;15.84;46.51;96570.41;5056790;28;20175;-68
2021/10/20 06:14:48;;;;;;;4.10;2.90;;;;;;;15.87;46.19;96570.06;5071884;28;20243;-67
2021/10/20 06:17:14;;;;;;;4.50;3.03;;;;;;;16.12;45.82;96563.16;5048312;28;20440;-67
2021/10/20 06:19:40;;;;;;;11.40;3.50;;;;;;;16.10;45.85;96577.56;5069638;28;20731;-67
2021/10/20 06:22:05;;;;;;;4.10;3.30;;;;;;;16.16;45.95;96562.72;5064024;28;20711;-66
2021/10/20 06:24:31;;;;;;;5.20;3.30;;;;;;;16.22;45.82;96561.94;5072084;28;20179;-69
2021/10/20 06:26:56;;;;;;;3.73;3.30;;;;;;;16.26;45.66;96565.78;5053575;28;20211;-67
2021/10/20 06:29:23;;;;;;;7.70;3.00;;;;;;;16.30;46.02;96569.66;5072195;28;20175;-65
2021/10/20 06:31:48;;;;;;;15.13;5.10;;;;;;;16.19;46.01;96570.25;5077421;28;20185;-70
2021/10/20 06:34:14;;;;;;;14.10;5.40;;;;;;;16.26;46.02;96569.25;5069233;28;20859;-65
2021/10/20 06:36:41;;;;;;;15.30;5.23;;;;;;;16.34;45.73;96575.31;5062650;28;20226;-66
2021/10/20 06:39:07;;;;;;;7.77;4.70;;;;;;;16.27;45.63;96580.63;5033524;28;20221;-67
2021/10/20 06:41:33;;;;;;;12.20;5.07;;;;;;;16.36;45.29;96584.72;5059660;28;20487;-68
2021/10/20 06:43:59;;;;;;;30.77;8.80;;;;;;;16.53;44.87;96576.31;5063236;28;20848;-67
2021/10/20 06:46:24;;;;;;;28.57;7.80;;;;;;;16.71;44.75;96578.34;5061652;28;20200;-68
2021/10/20 06:48:50;;;;;;;19.47;6.20;;;;;;;16.80;44.31;96578.94;5055362;28;20211;-68
2021/10/20 06:51:16;;;;;;;7.13;3.40;;;;;;;16.77;44.14;96574.88;5074443;28;20186;-67
2021/10/20 06:53:42;;;;;;;5.83;3.10;;;;;;;16.90;43.78;96576.66;5073681;28;20439;-68
2021/10/20 06:56:07;;;;;;;9.57;3.77;;;;;;;16.74;43.96;96570.81;5073689;28;20255;-65
2021/10/20 06:58:34;;;;;;;4.07;2.93;;;;;;;16.80;43.71;96573.63;5076322;28;20302;-67
2021/10/20 07:01:00;;;;;;;4.57;2.93;;;;;;;16.92;43.49;96571.97;5073602;28;20273;-67
2021/10/20 07:03:26;;;;;;;6.90;2.80;;;;;;;17.35;42.88;96566.16;5066707;28;20519;-67
2021/10/20 07:05:52;;;;;;;4.60;2.90;;;;;;;17.60;42.37;96565.41;5075041;28;20206;-66
2021/10/20 07:08:18;;;;;;;7.00;3.10;;;;;;;17.64;42.49;96556.00;5075049;28;20482;-67
2021/10/20 07:10:43;;;;;;;3.30;2.70;;;;;;;17.67;42.58;96552.13;5075289;28;20190;-66
2021/10/20 07:13:09;;;;;;;5.70;3.30;;;;;;;17.59;42.44;96547.06;5075103;28;20201;-66
2021/10/20 07:15:35;;;;;;;9.03;2.93;;;;;;;17.88;42.16;96544.84;5074180;28;20186;-68
2021/10/20 07:18:01;;;;;;;6.07;3.87;;;;;;;17.87;42.32;96546.69;5066106;28;20190;-68
2021/10/20 07:20:26;;;;;;;3.50;3.20;;;;;;;18.03;41.71;96555.16;5052262;28;20187;-66
2021/10/20 07:22:52;;;;;;;5.37;3.20;;;;;;;18.02;42.24;96553.56;5046219;28;20191;-68
2021/10/20 07:25:18;;;;;;;5.83;3.50;;;;;;;18.22;42.25;96548.91;5065327;28;20188;-67
2021/10/20 07:27:48;;;;;;;4.30;3.37;;;;;;;18.31;42.18;96551.28;5062705;28;20689;-66
2021/10/20 07:30:14;;;;;;;4.73;2.90;;;;;;;18.38;42.09;96552.03;5048953;28;20417;-66
2021/10/20 07:32:44;;;;;;;6.50;3.30;;;;;;;18.33;42.07;96562.47;5075153;28;20471;-68
2021/10/20 07:35:12;;;;;;;4.43;2.83;;;;;;;18.29;41.97;96551.50;5075140;28;20463;-67
2021/10/20 07:37:40;;;;;;;4.20;2.90;;;;;;;18.55;41.82;96550.44;5068701;28;20452;-67
2021/10/20 07:40:07;;;;;;;4.73;2.87;;;;;;;18.57;41.82;96539.63;5078819;28;20420;-66
2021/10/20 07:42:36;;;;;;;3.17;2.87;;;;;;;18.39;41.86;96543.06;5072146;28;20417;-67
2021/10/20 07:45:02;;;;;;;5.20;3.00;;;;;;;18.70;41.24;96538.66;5068323;28;20428;-66
2021/10/20 07:47:28;;;;;;;9.90;3.10;;;;;;;18.87;41.39;96528.25;5083177;28;20506;-65
2021/10/20 07:49:54;;;;;;;4.60;3.00;;;;;;;19.17;40.90;96515.06;5080990;28;20793;-66
2021/10/20 07:52:20;;;;;;;4.03;2.90;;;;;;;18.79;41.02;96513.44;5080972;28;20182;-67
2021/10/20 07:54:46;;;;;;;6.37;2.87;;;;;;;18.82;41.00;96505.03;5062533;28;20271;-66
2021/10/20 07:57:12;;;;;;;5.53;2.90;;;;;;;18.89;41.10;96512.94;5076785;28;20436;-65
2021/10/20 07:59:38;;;;;;;6.70;3.53;;;;;;;18.87;41.03;96505.19;5083335;28;20448;-66
2021/10/20 08:02:03;;;;;;;4.00;2.70;;;;;;;18.78;41.07;96493.22;5076710;28;20186;-69
2021/10/20 08:04:29;;;;;;;4.60;3.10;;;;;;;18.92;41.03;96498.38;5080324;28;20186;-66
2021/10/20 08:06:55;;;;;;;5.40;2.97;;;;;;;19.17;40.77;96499.13;5081903;28;20202;-65
2021/10/20 08:09:20;;;;;;;3.97;2.80;;;;;;;19.39;40.59;96477.41;5065347;28;20182;-66
2021/10/20 08:11:46;;;;;;;4.13;2.77;;;;;;;19.11;40.68;96493.88;5077661;28;20208;-65
2021/10/20 08:14:12;;;;;;;5.20;2.93;;;;;;;19.42;39.63;96490.19;5075929;28;20648;-66
2021/10/20 08:16:37;;;;;;;3.03;2.73;;;;;;;19.65;39.56;96480.69;5075130;28;20206;-66
2021/10/20 08:19:03;;;;;;;3.27;2.50;;;;;;;19.75;39.44;96470.31;5078800;28;20185;-66
2021/10/20 08:21:28;;;;;;;4.23;2.60;;;;;;;19.72;39.61;96467.31;5062922;28;20189;-66
2021/10/20 08:23:54;;;;;;;4.00;2.90;;;;;;;19.44;39.64;96471.41;5076822;28;20197;-67
2021/10/20 08:26:20;;;;;;;3.33;2.60;;;;;;;19.80;39.51;96472.28;5074069;28;20274;-65
2021/10/20 08:28:45;;;;;;;4.23;2.20;;;;;;;19.69;39.78;96479.19;5066225;28;20692;-66
2021/10/20 08:31:11;;;;;;;5.07;2.70;;;;;;;19.75;39.49;96465.00;5073518;28;20215;-67
2021/10/20 08:33:37;;;;;;;3.83;3.43;;;;;;;19.37;40.21;96468.84;5065922;28;20182;-68
2021/10/20 08:36:02;;;;;;;3.87;3.00;;;;;;;19.87;39.33;96467.69;5072205;28;20228;-66
2021/10/20 08:38:28;;;;;;;8.23;2.90;;;;;;;20.06;39.36;96470.25;5055572;28;20641;-67
2021/10/20 08:40:55;;;;;;;2.70;2.50;;;;;;;19.74;40.06;96470.53;5065336;28;20236;-68
2021/10/20 08:43:21;;;;;;;4.07;2.43;;;;;;;19.99;39.82;96478.34;5057242;28;20790;-66
2021/10/20 08:45:48;;;;;;;3.60;2.83;;;;;;;20.03;39.79;96473.38;5073927;28;20488;-67
2021/10/20 08:48:18;;;;;;;3.23;2.80;;;;;;;19.84;40.60;96485.91;5040333;28;20464;-66
2021/10/20 08:50:49;;;;;;;6.70;2.57;;;;;;;20.09;40.40;96475.91;5073620;28;20425;-66
2021/10/20 08:53:14;;;;;;;6.20;3.10;;;;;;;19.98;40.52;96489.19;5073502;28;20782;-66
2021/10/20 08:55:40;;;;;;;3.60;2.70;;;;;;;20.29;39.85;96477.41;5073313;28;20425;-68
2021/10/20 08:58:06;;;;;;;4.00;3.03;;;;;;;20.19;40.38;96463.88;5072955;28;20190;-67
2021/10/20 09:00:31;;;;;;;4.37;3.00;;;;;;;20.34;39.88;96471.41;5073110;28;20186;-67
2021/10/20 09:02:57;;;;;;;3.60;2.70;;;;;;;20.41;39.83;96466.75;5062621;28;20188;-66
2021/10/20 09:05:25;;;;;;;16.53;2.97;;;;;;;20.56;39.83;96464.44;5050940;28;20560;-68
2021/10/20 09:07:53;;;;;;;3.03;2.60;;;;;;;20.57;40.20;96470.56;5071321;28;20209;-66
2021/10/20 09:10:21;;;;;;;5.60;2.80;;;;;;;19.98;41.22;96467.91;5056523;28;20507;-67
2021/10/20 09:12:46;;;;;;;2.50;2.30;;;;;;;20.65;40.41;96446.25;5057279;28;20431;-66
2021/10/20 09:15:18;;;;;;;3.60;3.00;;;;;;;20.65;40.27;96456.06;5071209;28;20432;-67
2021/10/20 09:18:05;;;;;;;3.10;2.73;;;;;;;20.83;40.08;96447.13;5052841;28;20239;-66
2021/10/20 09:20:35;;;;;;;8.87;3.10;;;;;;;20.81;39.95;96450.06;5070015;28;20413;-67
2021/10/20 09:23:13;;;;;;;3.40;3.10;;;;;;;20.58;40.91;96450.09;5075937;28;20417;-66
2021/10/20 09:25:57;;;;;;;5.07;3.10;;;;;;;20.64;40.72;96428.66;5073958;28;20420;-65
2021/10/20 09:28:33;;;;;;;2.90;2.60;;;;;;;20.95;40.47;96413.28;5054317;28;20490;-67
2021/10/20 09:31:03;;;;;;;5.70;3.17;;;;;;;20.99;40.69;96422.44;5067994;28;20805;-66
2021/10/20 09:33:30;;;;;;;4.77;3.03;;;;;;;21.12;40.47;96407.19;5065452;28;20435;-66
2021/10/20 09:36:05;;;;;;;2.70;2.37;;;;;;;21.00;40.98;96412.56;5072396;28;20449;-68
2021/10/20 09:38:35;;;;;;;3.03;2.57;;;;;;;20.60;41.24;96395.56;5064436;28;20560;-67
2021/10/20 09:41:06;;;;;;;6.70;2.63;;;;;;;21.22;40.54;96393.25;5070106;28;20801;-66
2021/10/20 09:43:32;;;;;;;3.53;3.20;;;;;;;21.47;40.04;96393.69;5072613;28;20503;-68
2021/10/20 09:46:01;;;;;;;3.70;2.70;;;;;;;21.59;39.83;96396.28;5070809;28;20487;-68
2021/10/20 09:48:27;;;;;;;6.10;3.00;;;;;;;21.54;40.17;96387.38;5066765;28;20454;-67
2021/10/20 09:50:53;;;;;;;5.80;3.33;;;;;;;21.60;40.01;96381.91;5068877;28;20436;-66
2021/10/20 09:53:19;;;;;;;4.13;3.13;;;;;;;21.76;39.57;96384.81;5071024;28;20428;-65
2021/10/20 09:55:44;;;;;;;6.70;2.90;;;;;;;21.85;39.12;96383.34;5071372;28;20429;-67
2021/10/20 09:58:12;;;;;;;3.37;2.80;;;;;;;21.83;39.79;96390.78;5072208;28;20263;-67
2021/10/20 10:00:38;;;;;;;5.70;2.67;;;;;;;21.58;40.14;96399.97;5072077;28;20508;-67
2021/10/20 10:03:05;;;;;;;2.93;2.53;;;;;;;21.97;39.45;96390.44;5064192;28;20505;-65
2021/10/20 10:05:31;;;;;;;6.27;2.87;;;;;;;22.30;38.82;96370.88;5072109;28;20182;-66
2021/10/20 10:07:57;;;;;;;7.70;3.00;;;;;;;22.60;38.24;96372.34;5072415;28;20449;-66
2021/10/20 10:10:23;;;;;;;3.63;2.87;;;;;;;22.23;38.56;96376.38;5072498;28;20431;-65
2021/10/20 10:12:54;;;;;;;5.70;2.90;;;;;;;22.29;38.37;96371.13;5064416;28;20413;-66
2021/10/20 10:15:20;;;;;;;5.60;2.73;;;;;;;22.25;38.72;96360.94;5054910;28;20247;-69
2021/10/20 10:17:47;;;;;;;6.37;3.40;;;;;;;22.37;38.91;96373.34;5066826;28;20809;-68
2021/10/20 10:20:16;;;;;;;5.00;2.80;;;;;;;22.43;38.94;96385.72;5070810;28;20413;-65
2021/10/20 10:22:56;;;;;;;2.50;2.30;;;;;;;21.48;40.70;96373.16;5064979;28;20425;-66
2021/10/20 10:25:40;;;;;;;3.40;2.77;;;;;;;21.76;40.28;96372.28;5058410;28;20424;-67
2021/10/20 10:28:23;;;;;;;4.00;3.10;;;;;;;22.27;39.45;96363.34;5072070;28;20500;-66
2021/10/20 10:30:54;;;;;;;3.00;2.37;;;;;;;22.60;38.63;96356.31;5072088;28;20417;-66
2021/10/20 10:33:27;;;;;;;6.00;2.47;;;;;;;22.73;38.19;96355.09;5051933;28;20410;-65
2021/10/20 10:36:02;;;;;;;3.17;2.70;;;;;;;22.17;39.08;96364.06;5066062;28;20459;-66
2021/10/20 10:38:39;;;;;;;4.83;2.93;;;;;;;22.81;38.48;96367.19;5073306;28;20530;-66
2021/10/20 10:41:26;;;;;;;4.43;2.90;;;;;;;22.64;38.52;96361.94;5072316;28;20562;-68
2021/10/20 10:44:11;;;;;;;4.80;3.23;;;;;;;22.95;38.06;96354.25;5050725;28;20429;-67
2021/10/20 10:46:54;;;;;;;3.40;2.67;;;;;;;21.99;39.90;96362.47;5066927;28;20961;-65
2021/10/20 10:49:30;;;;;;;2.83;2.60;;;;;;;22.67;38.54;96372.94;5070712;28;20420;-65
2021/10/20 10:52:33;;;;;;;7.03;4.53;;;;;;;22.59;39.03;96364.56;5071732;28;20464;-65
2021/10/20 10:55:08;;;;;;;6.90;3.90;;;;;;;23.04;38.47;96360.75;5072057;28;20436;-66
2021/10/20 10:57:50;;;;;;;5.87;3.77;;;;;;;23.16;38.17;96374.78;5071389;28;20432;-66
2021/10/20 11:00:18;;;;;;;4.30;3.40;;;;;;;23.29;37.96;96362.88;5071647;28;20421;-67
2021/10/20 11:02:51;;;;;;;7.07;3.07;;;;;;;23.41;38.10;96352.03;5064659;28;20431;-65
2021/10/20 11:05:31;;;;;;;5.80;3.13;;;;;;;23.69;37.48;96359.97;5052912;28;20432;-65
2021/10/20 11:08:11;;;;;;;5.47;2.70;;;;;;;23.59;37.81;96350.81;5064024;28;20537;-65
2021/10/20 11:10:39;;;;;;;3.83;2.97;;;;;;;23.53;37.92;96345.69;5057964;28;20774;-66
2021/10/20 11:13:05;;;;;;;4.53;2.60;;;;;;;22.75;39.12;96347.66;5059274;28;20480;-65
2021/10/20 11:15:32;;;;;;;5.17;2.60;;;;;;;23.17;38.59;96338.97;5050629;28;20811;-66
2021/10/20 11:17:58;;;;;;;10.53;2.50;;;;;;;22.83;38.84;96349.06;5068896;28;20765;-66
2021/10/20 11:20:27;;;;;;;3.00;2.40;;;;;;;22.81;39.20;96341.28;5062167;28;20420;-65
2021/10/20 11:22:56;;;;;;;6.30;3.57;;;;;;;23.33;38.45;96330.28;5060256;28;20507;-65
2021/10/20 11:25:23;;;;;;;4.03;2.80;;;;;;;23.61;38.11;96329.97;5070504;28;20519;-67
2021/10/20 11:27:51;;;;;;;3.23;2.73;;;;;;;23.26;38.73;96319.81;5062861;28;20564;-68
2021/10/20 11:30:18;;;;;;;4.03;3.20;;;;;;;23.48;38.29;96327.75;5070733;28;20893;-66
2021/10/20 11:32:44;;;;;;;5.00;3.50;;;;;;;23.83;37.83;96321.00;5064421;28;20517;-67
2021/10/20 11:35:19;;;;;;;4.87;2.50;;;;;;;23.89;37.07;96316.47;5058853;28;20420;-65